createdAt,value
2023-03-15T00:00:35.494Z,2.84
2023-03-15T00:03:01.919Z,2.68
2023-03-15T00:05:28.299Z,2.52
2023-03-15T00:07:54.687Z,2.48
2023-03-15T00:10:21.079Z,2.44
2023-03-15T00:12:47.476Z,2.45
2023-03-15T00:15:13.884Z,2.35
2023-03-15T00:17:40.283Z,2.34
2023-03-15T00:20:06.722Z,2.36
2023-03-15T00:22:33.147Z,2.14
2023-03-15T00:24:59.543Z,2.09
2023-03-15T00:27:25.957Z,1.94
2023-03-15T00:29:52.383Z,1.85
2023-03-15T00:32:18.790Z,1.74
2023-03-15T00:34:45.201Z,1.73
2023-03-15T00:37:11.577Z,1.61
2023-03-15T00:39:38.065Z,1.62
2023-03-15T00:42:04.468Z,1.45
2023-03-15T00:44:30.876Z,1.47
2023-03-15T00:46:57.329Z,1.42
2023-03-15T00:49:23.817Z,1.43
2023-03-15T00:51:50.260Z,1.49
2023-03-15T00:54:16.657Z,1.44
2023-03-15T00:56:43.064Z,1.43
2023-03-15T00:59:09.502Z,1.41
2023-03-15T01:01:35.957Z,1.39
2023-03-15T01:04:02.346Z,1.47
2023-03-15T01:06:28.745Z,1.44
2023-03-15T01:08:55.159Z,1.45
2023-03-15T01:11:21.542Z,1.54
2023-03-15T01:13:47.921Z,1.51
2023-03-15T01:16:14.417Z,1.37
2023-03-15T01:18:40.854Z,1.38
2023-03-15T01:21:07.275Z,1.37
2023-03-15T01:23:33.722Z,1.45
2023-03-15T01:26:00.170Z,1.60
2023-03-15T01:28:26.549Z,1.39
2023-03-15T01:30:52.936Z,1.33
2023-03-15T01:33:19.319Z,1.41
2023-03-15T01:35:45.714Z,1.38
2023-03-15T01:38:12.118Z,1.26
2023-03-15T01:40:38.504Z,1.30
2023-03-15T01:43:04.884Z,1.25
2023-03-15T01:45:31.290Z,1.18
2023-03-15T01:47:57.739Z,1.18
2023-03-15T01:50:24.141Z,1.18
2023-03-15T01:52:50.576Z,1.20
2023-03-15T01:55:16.988Z,1.30
2023-03-15T01:57:43.423Z,1.23
2023-03-15T02:00:09.837Z,1.28
2023-03-15T02:02:36.278Z,1.31
2023-03-15T02:05:02.745Z,1.29
2023-03-15T02:07:29.114Z,1.27
2023-03-15T02:09:55.501Z,1.34
2023-03-15T02:12:21.906Z,1.36
2023-03-15T02:14:48.285Z,1.38
2023-03-15T02:17:14.729Z,1.31
2023-03-15T02:19:41.140Z,1.27
2023-03-15T02:22:07.529Z,1.18
2023-03-15T02:24:33.914Z,1.16
2023-03-15T02:27:00.312Z,1.11
2023-03-15T02:29:26.733Z,1.11
2023-03-15T02:31:53.169Z,1.08
2023-03-15T02:34:19.584Z,1.02
2023-03-15T02:36:45.970Z,1.07
2023-03-15T02:39:12.373Z,1.12
2023-03-15T02:41:38.962Z,1.10
2023-03-15T02:44:05.448Z,1.10
2023-03-15T02:46:31.830Z,1.10
2023-03-15T02:48:58.218Z,1.06
2023-03-15T02:51:24.632Z,0.97
2023-03-15T02:53:51.057Z,0.95
2023-03-15T02:56:17.454Z,0.91
2023-03-15T02:58:43.875Z,0.90
2023-03-15T03:01:10.320Z,0.93
2023-03-15T03:03:36.730Z,0.91
2023-03-15T03:06:03.140Z,0.95
2023-03-15T03:08:29.542Z,0.89
2023-03-15T03:10:55.923Z,0.80
2023-03-15T03:13:22.313Z,0.89
2023-03-15T03:15:48.739Z,0.86
2023-03-15T03:18:15.154Z,0.76
2023-03-15T03:20:41.539Z,0.76
2023-03-15T03:23:07.940Z,0.76
2023-03-15T03:25:34.319Z,0.79
2023-03-15T03:28:00.753Z,0.90
2023-03-15T03:30:27.168Z,0.92
2023-03-15T03:32:53.626Z,0.91
2023-03-15T03:35:20.041Z,0.89
2023-03-15T03:37:46.448Z,0.94
2023-03-15T03:40:12.845Z,0.93
2023-03-15T03:42:39.255Z,0.93
2023-03-15T03:45:05.862Z,0.74
2023-03-15T03:47:32.245Z,0.63
2023-03-15T03:49:58.609Z,0.58
2023-03-15T03:52:25.014Z,0.56
2023-03-15T03:54:51.399Z,0.49
2023-03-15T03:57:17.808Z,0.55
2023-03-15T03:59:44.193Z,0.46
2023-03-15T04:02:10.672Z,0.38
2023-03-15T04:04:37.170Z,0.41
2023-03-15T04:07:03.612Z,0.30
2023-03-15T04:09:30.062Z,0.22
2023-03-15T04:11:56.455Z,0.34
2023-03-15T04:14:22.862Z,0.28
2023-03-15T04:16:49.242Z,0.21
2023-03-15T04:19:15.639Z,0.09
2023-03-15T04:21:42.050Z,0.08
2023-03-15T04:24:08.431Z,0.02
2023-03-15T04:26:34.822Z,0.10
2023-03-15T04:29:01.198Z,0.05
2023-03-15T04:31:27.696Z,0.04
2023-03-15T04:33:54.140Z,-0.05
2023-03-15T04:36:20.548Z,-0.03
2023-03-15T04:38:46.968Z,0.01
2023-03-15T04:41:13.369Z,0.06
2023-03-15T04:43:40.988Z,0.07
2023-03-15T04:46:07.472Z,0.11
2023-03-15T04:48:33.867Z,0.14
2023-03-15T04:51:00.276Z,0.11
2023-03-15T04:53:26.645Z,0.10
2023-03-15T04:55:53.019Z,0.03
2023-03-15T04:58:19.430Z,-0.01
2023-03-15T05:00:45.916Z,-0.02
2023-03-15T05:03:12.343Z,0.02
2023-03-15T05:05:38.756Z,-0.03
2023-03-15T05:08:05.149Z,-0.05
2023-03-15T05:10:31.545Z,0.06
2023-03-15T05:12:57.929Z,0.15
2023-03-15T05:15:24.433Z,0.07
2023-03-15T05:17:50.820Z,-0.06
2023-03-15T05:20:17.246Z,-0.19
2023-03-15T05:22:43.668Z,-0.26
2023-03-15T05:25:10.106Z,-0.37
2023-03-15T05:27:36.498Z,-0.38
2023-03-15T05:30:02.896Z,-0.41
2023-03-15T05:32:29.326Z,-0.38
2023-03-15T05:34:55.723Z,-0.33
2023-03-15T05:37:22.135Z,-0.35
2023-03-15T05:39:48.549Z,-0.40
2023-03-15T05:42:14.938Z,-0.42
2023-03-15T05:44:41.329Z,-0.43
2023-03-15T05:47:07.714Z,-0.39
2023-03-15T05:49:34.098Z,-0.31
2023-03-15T05:52:00.489Z,-0.28
2023-03-15T05:54:26.893Z,-0.36
2023-03-15T05:56:53.270Z,-0.38
2023-03-15T05:59:19.678Z,-0.37
2023-03-15T06:01:46.108Z,-0.38
2023-03-15T06:04:12.567Z,-0.44
2023-03-15T06:06:38.991Z,-0.43
2023-03-15T06:09:05.444Z,-0.40
2023-03-15T06:11:31.847Z,-0.29
2023-03-15T06:13:58.245Z,-0.27
2023-03-15T06:16:24.638Z,-0.34
2023-03-15T06:18:51.041Z,-0.27
2023-03-15T06:21:17.439Z,-0.20
2023-03-15T06:23:43.856Z,-0.11
2023-03-15T06:26:10.253Z,-0.09
2023-03-15T06:28:36.635Z,0.00
2023-03-15T06:31:03.119Z,0.11
2023-03-15T06:33:29.602Z,0.11
2023-03-15T06:35:56.057Z,0.18
2023-03-15T06:38:22.528Z,0.20
2023-03-15T06:40:49.082Z,0.27
2023-03-15T06:43:15.595Z,0.38
2023-03-15T06:45:42.104Z,0.43
2023-03-15T06:48:08.634Z,0.53
2023-03-15T06:50:46.402Z,0.54
2023-03-15T06:53:13.763Z,0.62
2023-03-15T06:55:40.185Z,0.75
2023-03-15T06:58:06.587Z,0.69
2023-03-15T07:00:32.973Z,0.78
2023-03-15T07:02:59.462Z,0.90
2023-03-15T07:05:25.934Z,0.98
2023-03-15T07:07:52.408Z,1.08
2023-03-15T07:10:18.802Z,1.21
2023-03-15T07:12:45.233Z,1.32
2023-03-15T07:15:11.611Z,1.39
2023-03-15T07:17:38.002Z,1.54
2023-03-15T07:20:04.441Z,1.60
2023-03-15T07:22:30.832Z,1.75
2023-03-15T07:24:57.211Z,1.80
2023-03-15T07:27:23.634Z,1.91
2023-03-15T07:29:50.045Z,2.04
2023-03-15T07:32:16.524Z,2.17
2023-03-15T07:34:43.020Z,2.25
2023-03-15T07:37:09.436Z,2.33
2023-03-15T07:39:35.847Z,2.47
2023-03-15T07:42:02.219Z,2.54
2023-03-15T07:44:28.583Z,2.48
2023-03-15T07:46:55.048Z,2.52
2023-03-15T07:49:21.481Z,2.59
2023-03-15T07:51:47.873Z,2.59
2023-03-15T07:54:14.291Z,2.66
2023-03-15T07:56:40.694Z,2.76
2023-03-15T07:59:07.077Z,2.76
2023-03-15T08:01:33.487Z,2.83
2023-03-15T08:03:59.927Z,2.94
2023-03-15T08:06:26.328Z,2.99
2023-03-15T08:08:52.739Z,2.79
2023-03-15T08:11:19.124Z,2.89
2023-03-15T08:13:45.534Z,3.00
2023-03-15T08:16:12.008Z,3.14
2023-03-15T08:18:38.409Z,3.26
2023-03-15T08:21:04.792Z,3.27
2023-03-15T08:23:31.185Z,3.04
2023-03-15T08:25:57.560Z,3.07
2023-03-15T08:28:23.967Z,3.13
2023-03-15T08:30:50.383Z,3.29
2023-03-15T08:33:16.773Z,3.41
2023-03-15T08:35:43.172Z,3.66
2023-03-15T08:38:09.580Z,3.74
2023-03-15T08:40:36.298Z,3.65
2023-03-15T08:43:03.412Z,3.60
2023-03-15T08:45:30.497Z,3.85
2023-03-15T08:47:57.036Z,3.96
2023-03-15T08:50:23.406Z,4.03
2023-03-15T08:52:49.784Z,4.10
2023-03-15T08:55:16.206Z,4.26
2023-03-15T08:57:42.609Z,4.49
2023-03-15T09:00:09.060Z,4.75
2023-03-15T09:02:35.563Z,4.96
2023-03-15T09:05:02.011Z,4.77
2023-03-15T09:07:28.389Z,4.64
2023-03-15T09:09:54.833Z,4.57
2023-03-15T09:12:21.251Z,4.79
2023-03-15T09:14:47.641Z,4.86
2023-03-15T09:17:14.089Z,4.81
2023-03-15T09:19:40.501Z,4.87
2023-03-15T09:22:16.402Z,5.17
2023-03-15T09:24:43.488Z,5.48
2023-03-15T09:27:09.913Z,5.40
2023-03-15T09:29:36.317Z,5.25
2023-03-15T09:32:02.744Z,5.47
2023-03-15T09:34:33.317Z,5.40
2023-03-15T09:37:06.141Z,5.35
2023-03-15T09:39:32.530Z,5.55
2023-03-15T09:41:58.965Z,5.60
2023-03-15T09:44:25.381Z,5.56
2023-03-15T09:46:51.838Z,5.90
2023-03-15T09:49:18.286Z,6.11
2023-03-15T09:51:44.687Z,5.84
2023-03-15T09:54:11.063Z,6.00
2023-03-15T09:56:37.471Z,5.98
2023-03-15T09:59:03.956Z,6.10
2023-03-15T10:01:30.510Z,5.84
2023-03-15T10:03:56.978Z,6.22
2023-03-15T10:06:23.384Z,6.30
2023-03-15T10:08:49.853Z,6.25
2023-03-15T10:11:16.246Z,6.36
2023-03-15T10:13:42.673Z,6.44
2023-03-15T10:16:09.124Z,6.60
2023-03-15T10:18:35.526Z,6.44
2023-03-15T10:21:01.967Z,6.69
2023-03-15T10:23:28.365Z,7.02
2023-03-15T10:25:54.769Z,7.29
2023-03-15T10:28:21.173Z,7.48
2023-03-15T10:30:47.581Z,7.50
2023-03-15T10:33:13.972Z,7.54
2023-03-15T10:35:40.424Z,7.21
2023-03-15T10:38:06.847Z,7.29
2023-03-15T10:40:33.285Z,7.50
2023-03-15T10:42:59.674Z,7.28
2023-03-15T10:45:26.050Z,7.40
2023-03-15T10:48:00.232Z,7.64
2023-03-15T10:50:27.376Z,7.78
2023-03-15T10:52:53.773Z,7.77
2023-03-15T10:55:20.200Z,7.76
2023-03-15T10:57:47.000Z,7.73
2023-03-15T11:00:13.397Z,7.67
2023-03-15T11:02:39.793Z,7.86
2023-03-15T11:05:06.193Z,7.94
2023-03-15T11:07:32.579Z,7.75
2023-03-15T11:09:58.988Z,7.98
2023-03-15T11:12:25.407Z,8.29
2023-03-15T11:14:51.816Z,8.40
2023-03-15T11:17:18.200Z,8.45
2023-03-15T11:19:44.578Z,8.46
2023-03-15T11:22:10.972Z,8.48
2023-03-15T11:24:37.371Z,8.16
2023-03-15T11:27:03.763Z,8.15
2023-03-15T11:29:30.159Z,7.88
2023-03-15T11:31:56.648Z,8.05
2023-03-15T11:34:23.097Z,8.06
2023-03-15T11:37:01.879Z,7.94
2023-03-15T11:39:34.041Z,7.93
2023-03-15T11:42:00.506Z,8.24
2023-03-15T11:44:26.897Z,8.48
2023-03-15T11:46:53.300Z,8.66
2023-03-15T11:49:19.840Z,8.86
2023-03-15T11:51:46.330Z,8.76
2023-03-15T11:54:12.749Z,8.51
2023-03-15T11:56:39.206Z,8.12
2023-03-15T11:59:05.606Z,8.36
2023-03-15T12:01:31.982Z,8.66
2023-03-15T12:03:58.367Z,8.38
2023-03-15T12:06:24.786Z,8.51
2023-03-15T12:08:51.193Z,8.39
2023-03-15T12:11:17.603Z,8.18
2023-03-15T12:13:44.003Z,7.70
2023-03-15T12:16:10.471Z,7.38
2023-03-15T12:18:36.881Z,7.50
2023-03-15T12:21:03.300Z,7.73
2023-03-15T12:23:29.712Z,7.78
2023-03-15T12:25:56.105Z,7.89
2023-03-15T12:28:22.568Z,7.91
2023-03-15T12:30:49.007Z,7.76
2023-03-15T12:33:15.410Z,7.80
2023-03-15T12:35:41.846Z,7.80
2023-03-15T12:38:08.271Z,8.07
2023-03-15T12:40:34.695Z,8.23
2023-03-15T12:43:01.092Z,8.37
2023-03-15T12:45:27.483Z,8.53
2023-03-15T12:47:53.902Z,8.47
2023-03-15T12:50:20.315Z,8.50
2023-03-15T12:52:46.699Z,8.60
2023-03-15T12:55:13.083Z,8.74
2023-03-15T12:57:39.467Z,8.93
2023-03-15T13:00:05.880Z,9.08
2023-03-15T13:02:42.838Z,9.16
2023-03-15T13:05:09.996Z,9.15
2023-03-15T13:07:50.287Z,8.83
2023-03-15T13:10:17.283Z,8.77
2023-03-15T13:12:43.682Z,8.36
2023-03-15T13:15:10.102Z,8.39
2023-03-15T13:17:36.501Z,8.12
2023-03-15T13:20:02.905Z,8.13
2023-03-15T13:22:29.275Z,8.37
2023-03-15T13:24:55.666Z,8.15
2023-03-15T13:27:22.069Z,7.96
2023-03-15T13:29:48.443Z,8.21
2023-03-15T13:32:14.928Z,8.45
2023-03-15T13:34:41.305Z,8.58
2023-03-15T13:37:07.723Z,8.81
2023-03-15T13:39:34.109Z,8.89
2023-03-15T13:42:00.492Z,8.68
2023-03-15T13:44:26.879Z,8.74
2023-03-15T13:46:53.324Z,8.94
2023-03-15T13:49:19.766Z,9.29
2023-03-15T13:51:46.196Z,10.47
2023-03-15T13:54:12.584Z,11.39
2023-03-15T13:56:49.324Z,11.71
2023-03-15T13:59:16.316Z,11.79
2023-03-15T14:01:42.825Z,11.59
2023-03-15T14:04:09.347Z,10.98
2023-03-15T14:06:35.753Z,10.50
2023-03-15T14:09:02.149Z,10.85
2023-03-15T14:11:28.520Z,11.03
2023-03-15T14:13:54.953Z,11.20
2023-03-15T14:16:21.358Z,11.02
2023-03-15T14:18:47.779Z,10.70
2023-03-15T14:21:14.319Z,11.96
2023-03-15T14:23:42.814Z,11.55
2023-03-15T14:26:10.437Z,11.38
2023-03-15T14:28:37.997Z,10.89
2023-03-15T14:31:04.488Z,10.18
2023-03-15T14:33:31.159Z,9.71
2023-03-15T14:35:58.781Z,9.45
2023-03-15T14:38:25.351Z,9.12
2023-03-15T14:40:51.807Z,9.03
2023-03-15T14:43:18.679Z,8.91
2023-03-15T14:45:45.115Z,8.77
2023-03-15T14:48:11.944Z,8.66
2023-03-15T14:50:38.585Z,8.72
2023-03-15T14:53:05.102Z,8.83
2023-03-15T14:55:31.504Z,8.90
2023-03-15T14:57:57.940Z,8.97
2023-03-15T15:00:24.332Z,8.95
2023-03-15T15:02:51.541Z,8.98
2023-03-15T15:05:19.249Z,8.93
2023-03-15T15:07:46.815Z,9.04
2023-03-15T15:10:13.443Z,8.92
2023-03-15T15:12:39.847Z,8.81
2023-03-15T15:15:06.336Z,8.78
2023-03-15T15:17:33.231Z,8.77
2023-03-15T15:20:00.863Z,8.73
2023-03-15T15:22:27.322Z,8.56
2023-03-15T15:24:53.747Z,8.71
2023-03-15T15:27:20.157Z,8.56
2023-03-15T15:29:46.574Z,8.61
2023-03-15T15:32:12.960Z,8.56
2023-03-15T15:34:40.425Z,8.55
2023-03-15T15:37:06.847Z,8.58
2023-03-15T15:39:33.239Z,8.66
2023-03-15T15:41:59.629Z,8.48
2023-03-15T15:44:26.051Z,8.45
2023-03-15T15:46:52.469Z,8.48
2023-03-15T15:49:18.889Z,8.45
2023-03-15T15:51:45.288Z,8.49
2023-03-15T15:54:11.683Z,8.30
2023-03-15T15:56:38.173Z,8.47
2023-03-15T15:59:04.632Z,8.68
2023-03-15T16:01:31.150Z,8.72
2023-03-15T16:03:57.641Z,8.69
2023-03-15T16:06:24.030Z,7.89
2023-03-15T16:08:51.655Z,8.14
2023-03-15T16:11:18.237Z,8.30
2023-03-15T16:13:44.647Z,8.35
2023-03-15T16:16:11.065Z,8.62
2023-03-15T16:18:37.476Z,8.63
2023-03-15T16:21:03.894Z,8.81
2023-03-15T16:23:30.320Z,8.95
2023-03-15T16:25:56.750Z,9.24
2023-03-15T16:28:23.166Z,9.51
2023-03-15T16:30:49.729Z,9.54
2023-03-15T16:33:16.266Z,9.71
2023-03-15T16:35:43.163Z,9.61
2023-03-15T16:38:09.615Z,9.41
2023-03-15T16:40:36.226Z,9.47
2023-03-15T16:43:02.640Z,9.12
2023-03-15T16:45:29.047Z,9.28
2023-03-15T16:47:55.522Z,8.77
2023-03-15T16:50:22.673Z,8.62
2023-03-15T16:52:49.115Z,8.25
2023-03-15T16:55:15.866Z,8.17
2023-03-15T16:57:43.453Z,8.39
2023-03-15T17:00:10.042Z,8.44
2023-03-15T17:02:36.455Z,8.55
2023-03-15T17:05:02.852Z,8.48
2023-03-15T17:07:29.279Z,8.42
2023-03-15T17:09:56.372Z,8.06
2023-03-15T17:12:23.985Z,8.11
2023-03-15T17:14:50.571Z,8.09
2023-03-15T17:17:17.148Z,8.13
2023-03-15T17:19:45.742Z,8.14
2023-03-15T17:22:12.340Z,7.79
2023-03-15T17:24:38.778Z,7.82
2023-03-15T17:27:05.520Z,7.91
2023-03-15T17:29:31.930Z,7.89
2023-03-15T17:31:58.433Z,7.79
2023-03-15T17:34:25.275Z,7.08
2023-03-15T17:36:51.870Z,6.57
2023-03-15T17:39:18.467Z,6.38
2023-03-15T17:41:45.045Z,6.06
2023-03-15T17:44:11.730Z,5.84
2023-03-15T17:46:39.263Z,5.89
2023-03-15T17:49:06.820Z,5.56
2023-03-15T17:51:33.442Z,5.80
2023-03-15T17:54:01.004Z,5.75
2023-03-15T17:56:27.577Z,5.74
2023-03-15T17:58:54.221Z,5.83
2023-03-15T18:01:20.808Z,6.01
2023-03-15T18:03:48.440Z,5.90
2023-03-15T18:06:14.891Z,5.84
2023-03-15T18:08:41.322Z,5.98
2023-03-15T18:11:07.811Z,5.69
2023-03-15T18:13:34.870Z,5.19
2023-03-15T18:16:01.578Z,4.94
2023-03-15T18:18:28.017Z,4.87
2023-03-15T18:20:54.482Z,5.11
2023-03-15T18:23:20.923Z,5.04
2023-03-15T18:25:47.363Z,4.77
2023-03-15T18:28:13.770Z,4.67
2023-03-15T18:30:41.044Z,4.65
2023-03-15T18:33:07.545Z,4.98
2023-03-15T18:35:34.078Z,5.12
2023-03-15T18:38:00.492Z,4.80
2023-03-15T18:40:26.933Z,4.52
2023-03-15T18:42:53.376Z,4.45
2023-03-15T18:45:19.809Z,4.48
2023-03-15T18:47:46.251Z,4.56
2023-03-15T18:50:12.722Z,4.84
2023-03-15T18:52:39.210Z,4.73
2023-03-15T18:55:05.655Z,4.78
2023-03-15T18:57:32.053Z,4.88
2023-03-15T18:59:59.229Z,4.82
2023-03-15T19:02:25.679Z,4.74
2023-03-15T19:04:52.101Z,4.62
2023-03-15T19:07:19.086Z,4.33
2023-03-15T19:09:45.486Z,4.28
2023-03-15T19:12:11.879Z,4.12
2023-03-15T19:14:38.337Z,4.14
2023-03-15T19:17:04.834Z,4.08
2023-03-15T19:19:31.395Z,4.07
2023-03-15T19:21:57.819Z,4.13
2023-03-15T19:24:24.240Z,4.23
2023-03-15T19:26:50.648Z,4.20
2023-03-15T19:29:17.067Z,4.45
2023-03-15T19:31:43.470Z,4.36
2023-03-15T19:34:09.876Z,4.27
2023-03-15T19:36:36.278Z,4.03
2023-03-15T19:39:02.691Z,3.89
2023-03-15T19:41:29.134Z,3.72
2023-03-15T19:43:55.525Z,3.61
2023-03-15T19:46:21.984Z,3.57
2023-03-15T19:48:48.404Z,3.49
2023-03-15T19:51:14.811Z,3.67
2023-03-15T19:53:41.236Z,3.64
2023-03-15T19:56:07.643Z,3.82
2023-03-15T19:58:34.029Z,3.62
2023-03-15T20:01:00.440Z,3.42
2023-03-15T20:03:26.881Z,3.35
2023-03-15T20:05:53.310Z,3.33
2023-03-15T20:08:19.751Z,3.22
2023-03-15T20:10:46.264Z,3.09
2023-03-15T20:13:12.683Z,3.01
2023-03-15T20:15:39.160Z,3.02
2023-03-15T20:18:05.633Z,2.93
2023-03-15T20:20:32.227Z,2.92
2023-03-15T20:22:58.666Z,2.85
2023-03-15T20:25:25.109Z,2.79
2023-03-15T20:27:51.599Z,2.72
2023-03-15T20:30:18.118Z,2.72
2023-03-15T20:32:44.667Z,2.66
2023-03-15T20:35:11.129Z,2.53
2023-03-15T20:37:37.598Z,2.44
2023-03-15T20:40:04.085Z,2.53
2023-03-15T20:42:30.560Z,2.60
2023-03-15T20:44:58.611Z,2.70
2023-03-15T20:47:25.071Z,2.78
2023-03-15T20:49:51.497Z,2.82
2023-03-15T20:52:17.894Z,2.82
2023-03-15T20:54:44.340Z,2.82
2023-03-15T20:57:10.741Z,3.03
2023-03-15T20:59:37.368Z,3.06
2023-03-15T21:02:03.870Z,2.91
2023-03-15T21:04:31.349Z,2.83
2023-03-15T21:06:57.941Z,2.79
2023-03-15T21:09:24.360Z,2.75
2023-03-15T21:11:50.769Z,2.73
2023-03-15T21:14:17.713Z,2.66
2023-03-15T21:16:44.365Z,2.68
2023-03-15T21:19:11.892Z,2.71
2023-03-15T21:21:38.478Z,2.73
2023-03-15T21:24:07.083Z,2.67
2023-03-15T21:26:33.931Z,2.69
2023-03-15T21:29:00.394Z,2.70
2023-03-15T21:31:27.873Z,2.64
2023-03-15T21:33:55.431Z,2.58
2023-03-15T21:36:21.999Z,2.54
2023-03-15T21:38:50.616Z,2.56
2023-03-15T21:41:19.204Z,2.56
2023-03-15T21:43:45.795Z,2.56
2023-03-15T21:46:14.482Z,2.42
2023-03-15T21:48:42.033Z,2.35
2023-03-15T21:51:08.461Z,2.36
2023-03-15T21:53:34.861Z,2.46
2023-03-15T21:56:01.270Z,2.54
2023-03-15T21:58:27.712Z,2.63
2023-03-15T22:00:54.187Z,2.70
2023-03-15T22:03:20.638Z,2.70
2023-03-15T22:05:47.118Z,2.84
2023-03-15T22:08:13.656Z,3.07
2023-03-15T22:10:40.168Z,3.12
2023-03-15T22:13:06.662Z,3.36
2023-03-15T22:15:33.509Z,3.52
2023-03-15T22:18:00.136Z,3.80
2023-03-15T22:20:27.736Z,4.09
2023-03-15T22:22:55.270Z,4.12
2023-03-15T22:25:23.868Z,4.13
2023-03-15T22:27:50.469Z,3.92
2023-03-15T22:30:19.050Z,3.73
2023-03-15T22:32:46.741Z,3.69
2023-03-15T22:35:14.241Z,3.86
2023-03-15T22:37:42.864Z,3.74
2023-03-15T22:40:09.303Z,3.34
2023-03-15T22:42:37.069Z,3.08
2023-03-15T22:45:04.666Z,3.27
2023-03-15T22:47:31.253Z,3.15
2023-03-15T22:49:57.713Z,3.02
2023-03-15T22:52:24.126Z,2.87
2023-03-15T22:54:50.496Z,2.87
2023-03-15T22:57:16.895Z,2.96
2023-03-15T22:59:43.263Z,2.96
2023-03-15T23:02:09.655Z,3.23
2023-03-15T23:04:36.414Z,3.25
2023-03-15T23:07:03.960Z,2.99
2023-03-15T23:09:31.608Z,3.02
2023-03-15T23:11:58.073Z,3.13
2023-03-15T23:14:25.784Z,3.41
2023-03-15T23:16:52.375Z,3.27
2023-03-15T23:19:20.965Z,3.13
2023-03-15T23:21:47.553Z,3.24
2023-03-15T23:24:14.151Z,3.39
2023-03-15T23:26:40.569Z,3.30
2023-03-15T23:29:07.074Z,3.28
2023-03-15T23:31:33.532Z,3.58
2023-03-15T23:34:00.005Z,3.59
2023-03-15T23:36:26.461Z,3.36
2023-03-15T23:38:52.855Z,3.33
2023-03-15T23:41:19.266Z,3.08
2023-03-15T23:43:45.737Z,2.69
2023-03-15T23:46:12.213Z,2.57
2023-03-15T23:48:39.097Z,2.92
2023-03-15T23:51:05.501Z,3.27
2023-03-15T23:53:31.917Z,3.57
2023-03-15T23:55:58.848Z,3.67
2023-03-15T23:58:25.403Z,3.77
